Terminal Aerodrome Forecast
Issued by NWS Portland, OR

Home | Current Version | Previous Version | Text Only | Print | Product List | Glossary On
Versions: 1 2 3 4 5 6 7 8 9 10 11 12 13 14 15 16 17 18 19 20 21 22 23 24 25 26 27 28 29 30 31 32 33 34
000
FTUS46 KPQR 272332
TAFHIO
TAF
KHIO 272332Z 2800/2824 24008KT P6SM -SHRA SCT025 BKN040 BKN060
     FM280300 21005KT P6SM VCSH SCT025 BKN040 OVC070
     FM280900 17005KT P6SM BKN025 OVC050
     FM281200 16004KT P6SM -RA BKN025 OVC040
     FM281700 17006KT P6SM -SHRA SCT025 BKN035 OVC060=

USA.gov is the U.S. government's official web portal to all federal, state and local government web resources and services.